createdAt,value
2019-06-10T00:00:13.438Z,57.06
2019-06-10T00:02:41.336Z,60.67
2019-06-10T00:05:10.958Z,61.03
2019-06-10T00:07:40.942Z,61.21
2019-06-10T00:10:10.781Z,57.06
2019-06-10T00:12:41.832Z,60.92
2019-06-10T00:15:10.858Z,61.03
2019-06-10T00:17:52.747Z,61.24
2019-06-10T00:20:11.169Z,61.15
2019-06-10T00:22:40.907Z,61.43
2019-06-10T00:25:11.855Z,61.16
2019-06-10T00:27:42.042Z,61.53
2019-06-10T00:30:12.231Z,61.32
2019-06-10T00:32:41.174Z,61.18
2019-06-10T00:35:12.253Z,61.58
2019-06-10T00:37:41.902Z,61.64
2019-06-10T00:40:14.121Z,60.73
2019-06-10T00:42:41.893Z,61.43
2019-06-10T00:45:17.495Z,61.68
2019-06-10T00:47:41.440Z,61.90
2019-06-10T00:50:14.548Z,58.07
2019-06-10T00:52:42.157Z,61.91
2019-06-10T00:55:12.561Z,61.91
2019-06-10T00:57:41.863Z,61.75
2019-06-10T01:00:19.304Z,61.41
2019-06-10T01:02:41.126Z,61.22
2019-06-10T01:05:12.061Z,61.22
2019-06-10T01:07:41.405Z,61.66
2019-06-10T01:10:12.795Z,61.79
2019-06-10T01:12:41.264Z,61.53
2019-06-10T01:15:12.556Z,60.93
2019-06-10T01:17:41.761Z,61.62
2019-06-10T01:20:14.355Z,61.75
2019-06-10T01:22:41.179Z,61.36
2019-06-10T01:25:12.006Z,61.58
2019-06-10T01:27:40.975Z,61.21
2019-06-10T01:30:18.850Z,61.17
2019-06-10T01:32:41.605Z,61.47
2019-06-10T01:35:11.540Z,61.25
2019-06-10T01:37:41.386Z,61.63
2019-06-10T01:40:13.131Z,60.70
2019-06-10T01:42:41.297Z,61.66
2019-06-10T01:45:11.540Z,61.50
2019-06-10T01:47:41.646Z,61.19
2019-06-10T01:50:13.461Z,61.16
2019-06-10T01:52:41.112Z,60.85
2019-06-10T01:55:12.185Z,58.39
2019-06-10T01:57:41.330Z,60.83
2019-06-10T02:00:15.941Z,61.11
2019-06-10T02:02:44.779Z,61.26
2019-06-10T02:05:14.624Z,60.86
2019-06-10T02:07:42.451Z,61.36
2019-06-10T02:10:13.768Z,61.13
2019-06-10T02:12:41.678Z,60.80
2019-06-10T02:15:12.545Z,61.23
2019-06-10T02:17:41.730Z,60.85
2019-06-10T02:20:13.131Z,60.85
2019-06-10T02:22:41.107Z,61.03
2019-06-10T02:25:11.002Z,60.73
2019-06-10T02:27:41.477Z,60.94
2019-06-10T02:30:18.909Z,60.72
2019-06-10T02:32:42.797Z,60.81
2019-06-10T02:35:23.047Z,60.85
2019-06-10T02:37:44.499Z,60.92
2019-06-10T02:40:16.683Z,61.07
2019-06-10T02:42:49.741Z,60.78
2019-06-10T02:45:23.456Z,60.87
2019-06-10T02:47:48.610Z,60.54
2019-06-10T02:50:25.877Z,61.00
2019-06-10T02:52:53.052Z,60.79
2019-06-10T02:55:26.382Z,61.12
2019-06-10T02:57:49.839Z,60.80
2019-06-10T03:00:31.108Z,58.56
2019-06-10T03:02:48.531Z,60.47
2019-06-10T03:05:19.428Z,61.07
2019-06-10T03:07:47.147Z,61.46
2019-06-10T03:10:16.383Z,61.45
2019-06-10T03:12:45.466Z,61.35
2019-06-10T03:15:13.891Z,61.51
2019-06-10T03:17:42.951Z,61.99
2019-06-10T03:20:12.339Z,61.49
2019-06-10T03:22:42.293Z,61.83
2019-06-10T03:25:13.154Z,61.55
2019-06-10T03:27:42.471Z,61.82
2019-06-10T03:30:16.865Z,61.48
2019-06-10T03:32:46.964Z,61.42
2019-06-10T03:35:13.260Z,61.46
2019-06-10T03:37:42.382Z,61.57
2019-06-10T03:40:13.072Z,61.94
2019-06-10T03:42:42.746Z,61.98
2019-06-10T03:45:12.674Z,62.48
2019-06-10T03:47:42.702Z,62.50
2019-06-10T03:50:13.315Z,63.98
2019-06-10T03:52:43.183Z,65.05
2019-06-10T03:55:12.368Z,64.83
2019-06-10T03:57:42.346Z,64.34
2019-06-10T04:00:14.086Z,65.37
2019-06-10T04:02:43.160Z,65.90
2019-06-10T04:05:13.292Z,67.08
2019-06-10T04:07:42.713Z,66.71
2019-06-10T04:10:12.548Z,66.98
2019-06-10T04:12:43.267Z,66.69
2019-06-10T04:15:12.339Z,67.06
2019-06-10T04:17:42.843Z,66.70
2019-06-10T04:20:15.003Z,66.71
2019-06-10T04:22:41.702Z,66.78
2019-06-10T04:25:12.152Z,67.08
2019-06-10T04:27:42.445Z,67.35
2019-06-10T04:30:12.726Z,66.70
2019-06-10T04:32:42.917Z,67.45
2019-06-10T04:35:12.679Z,67.61
2019-06-10T04:37:42.636Z,67.80
2019-06-10T04:40:13.152Z,64.25
2019-06-10T04:42:40.048Z,67.23
2019-06-10T04:45:08.650Z,64.20
2019-06-10T04:47:37.082Z,67.47
2019-06-10T04:50:18.422Z,68.00
2019-06-10T04:52:36.416Z,68.57
2019-06-10T04:55:05.098Z,69.28
2019-06-10T04:57:33.610Z,68.05
2019-06-10T05:00:04.097Z,68.37
2019-06-10T05:02:33.016Z,68.95
2019-06-10T05:05:02.902Z,68.60
2019-06-10T05:07:36.495Z,68.70
2019-06-10T05:10:03.205Z,68.11
2019-06-10T05:12:32.737Z,68.08
2019-06-10T05:15:03.455Z,68.21
2019-06-10T05:17:34.073Z,68.55
2019-06-10T05:20:02.498Z,67.86
2019-06-10T05:22:32.828Z,68.89
2019-06-10T05:25:02.531Z,69.06
2019-06-10T05:27:33.017Z,68.99
2019-06-10T05:30:02.378Z,68.50
2019-06-10T05:32:33.300Z,69.02
2019-06-10T05:35:03.478Z,69.84
2019-06-10T05:37:33.669Z,70.25
2019-06-10T05:40:02.319Z,71.64
2019-06-10T05:42:34.026Z,71.48
2019-06-10T05:45:03.100Z,71.81
2019-06-10T05:47:35.628Z,71.71
2019-06-10T05:50:03.258Z,71.73
2019-06-10T05:52:33.828Z,70.20
2019-06-10T05:55:02.889Z,71.15
2019-06-10T05:57:33.513Z,72.69
2019-06-10T06:00:10.770Z,73.52
2019-06-10T06:02:33.697Z,73.74
2019-06-10T06:05:02.543Z,73.77
2019-06-10T06:07:33.599Z,73.78
2019-06-10T06:10:02.456Z,73.82
2019-06-10T06:12:33.873Z,73.94
2019-06-10T06:15:02.361Z,74.29
2019-06-10T06:17:32.774Z,74.39
2019-06-10T06:20:02.786Z,74.33
2019-06-10T06:22:33.736Z,74.51
2019-06-10T06:25:03.772Z,74.50
2019-06-10T06:27:33.382Z,74.47
2019-06-10T06:30:07.010Z,71.20
2019-06-10T06:32:33.680Z,74.54
2019-06-10T06:35:02.122Z,74.92
2019-06-10T06:37:34.677Z,74.63
2019-06-10T06:40:02.858Z,74.35
2019-06-10T06:42:33.531Z,74.79
2019-06-10T06:45:03.009Z,75.48
2019-06-10T06:47:34.064Z,74.00
2019-06-10T06:50:02.760Z,73.74
2019-06-10T06:52:55.597Z,73.72
2019-06-10T06:55:02.537Z,71.06
2019-06-10T06:57:33.740Z,73.46
2019-06-10T07:00:22.656Z,72.76
2019-06-10T07:02:34.202Z,74.43
2019-06-10T07:05:03.158Z,74.33
2019-06-10T07:07:33.114Z,71.13
2019-06-10T07:10:03.195Z,72.28
2019-06-10T07:12:33.770Z,69.87
2019-06-10T07:15:04.302Z,73.25
2019-06-10T07:17:34.523Z,74.22
2019-06-10T07:20:04.763Z,74.67
2019-06-10T07:22:35.292Z,74.48
2019-06-10T07:25:06.617Z,73.27
2019-06-10T07:27:37.518Z,73.95
2019-06-10T07:30:11.719Z,74.50
2019-06-10T07:32:38.829Z,74.61
2019-06-10T07:35:07.513Z,74.10
2019-06-10T07:37:37.593Z,73.89
2019-06-10T07:40:06.095Z,74.37
2019-06-10T07:42:34.902Z,71.09
2019-06-10T07:45:06.870Z,73.96
2019-06-10T07:47:35.495Z,73.81
2019-06-10T07:50:06.999Z,73.27
2019-06-10T07:52:35.922Z,74.02
2019-06-10T07:55:09.072Z,74.43
2019-06-10T07:57:37.538Z,73.95
2019-06-10T08:00:12.275Z,73.93
2019-06-10T08:02:44.304Z,74.10
2019-06-10T08:05:12.855Z,73.36
2019-06-10T08:07:43.772Z,72.25
2019-06-10T08:10:13.254Z,71.86
2019-06-10T08:12:46.243Z,72.14
2019-06-10T08:15:12.605Z,72.86
2019-06-10T08:17:42.913Z,73.54
2019-06-10T08:20:13.375Z,73.49
2019-06-10T08:22:50.170Z,73.11
2019-06-10T08:25:12.444Z,74.32
2019-06-10T08:27:44.985Z,71.02
2019-06-10T08:30:18.640Z,72.22
2019-06-10T08:32:46.342Z,72.58
2019-06-10T08:35:12.901Z,72.85
2019-06-10T08:37:43.204Z,73.32
2019-06-10T08:40:12.440Z,72.38
2019-06-10T08:42:43.691Z,72.18
2019-06-10T08:45:12.519Z,72.55
2019-06-10T08:47:44.315Z,71.91
2019-06-10T08:50:12.974Z,73.84
2019-06-10T08:52:53.824Z,72.68
2019-06-10T08:55:12.626Z,72.03
2019-06-10T08:57:44.170Z,72.12
2019-06-10T09:00:15.000Z,72.41
2019-06-10T09:02:45.187Z,69.58
2019-06-10T09:05:19.265Z,72.13
2019-06-10T09:07:51.287Z,72.07
2019-06-10T09:10:19.845Z,70.49
2019-06-10T09:12:50.949Z,69.75
2019-06-10T09:15:19.140Z,69.54
2019-06-10T09:17:50.016Z,68.59
2019-06-10T09:20:19.721Z,69.58
2019-06-10T09:23:00.124Z,68.49
2019-06-10T09:25:18.654Z,68.64
2019-06-10T09:27:49.617Z,68.81
2019-06-10T09:30:18.274Z,67.55
2019-06-10T09:32:51.195Z,67.34
2019-06-10T09:35:17.218Z,66.98
2019-06-10T09:37:49.333Z,67.50
2019-06-10T09:40:16.651Z,66.37
2019-06-10T09:42:48.131Z,65.52
2019-06-10T09:45:16.155Z,65.78
2019-06-10T09:47:48.507Z,65.09
2019-06-10T09:50:15.881Z,66.41
2019-06-10T09:52:49.443Z,64.04
2019-06-10T09:55:14.988Z,62.95
2019-06-10T09:57:45.993Z,64.78
2019-06-10T10:00:16.639Z,62.87
2019-06-10T10:02:49.794Z,61.67
2019-06-10T10:05:15.673Z,61.20
2019-06-10T10:07:48.557Z,60.10
2019-06-10T10:10:17.658Z,60.74
2019-06-10T10:12:47.851Z,61.36
2019-06-10T10:15:29.899Z,60.71
2019-06-10T10:17:48.286Z,61.11
2019-06-10T10:20:15.922Z,60.68
2019-06-10T10:22:45.712Z,60.58
2019-06-10T10:25:14.539Z,57.89
2019-06-10T10:27:45.545Z,59.70
2019-06-10T10:30:13.535Z,59.35
2019-06-10T10:32:44.843Z,59.49
2019-06-10T10:35:12.747Z,57.46
2019-06-10T10:37:42.339Z,56.03
2019-06-10T10:40:12.299Z,53.61
2019-06-10T10:42:45.939Z,53.83
2019-06-10T10:45:13.784Z,52.07
2019-06-10T10:47:41.280Z,52.01
2019-06-10T10:50:10.065Z,52.08
2019-06-10T10:52:38.493Z,49.74
2019-06-10T10:55:07.262Z,49.76
2019-06-10T10:57:35.675Z,50.18
2019-06-10T11:00:09.189Z,50.23
2019-06-10T11:02:37.622Z,49.78
2019-06-10T11:05:08.162Z,49.86
2019-06-10T11:07:36.699Z,49.27
2019-06-10T11:10:08.670Z,46.67
2019-06-10T11:12:37.669Z,47.59
2019-06-10T11:15:06.635Z,46.37
2019-06-10T11:17:35.094Z,46.12
2019-06-10T11:20:04.392Z,44.83
2019-06-10T11:22:32.943Z,44.58
2019-06-10T11:25:01.337Z,43.12
2019-06-10T11:27:30.932Z,43.11
2019-06-10T11:30:02.314Z,40.90
2019-06-10T11:32:32.614Z,42.39
2019-06-10T11:35:02.786Z,42.39
2019-06-10T11:37:30.401Z,43.31
2019-06-10T11:39:58.828Z,43.12
2019-06-10T11:42:27.261Z,42.97
2019-06-10T11:44:58.357Z,40.53
2019-06-10T11:47:25.854Z,40.53
2019-06-10T11:49:55.360Z,40.48
2019-06-10T11:52:24.525Z,40.48
2019-06-10T11:55:05.560Z,40.91
2019-06-10T11:57:23.198Z,39.65
2019-06-10T11:59:53.283Z,40.72
2019-06-10T12:02:22.837Z,41.62
2019-06-10T12:04:53.655Z,39.53
2019-06-10T12:07:22.366Z,40.87
2019-06-10T12:09:51.596Z,42.07
2019-06-10T12:12:22.059Z,40.87
2019-06-10T12:14:51.546Z,39.85
2019-06-10T12:17:34.978Z,40.32
2019-06-10T12:19:53.840Z,39.78
2019-06-10T12:22:22.565Z,39.57
2019-06-10T12:24:57.738Z,40.25
2019-06-10T12:27:20.812Z,38.90
2019-06-10T12:29:50.041Z,39.88
2019-06-10T12:32:18.561Z,40.73
2019-06-10T12:34:46.986Z,41.24
2019-06-10T12:37:16.072Z,40.88
2019-06-10T12:39:44.534Z,41.58
2019-06-10T12:42:14.331Z,41.94
2019-06-10T12:44:43.045Z,42.32
2019-06-10T12:47:11.428Z,43.21
2019-06-10T12:49:39.862Z,44.34
2019-06-10T12:52:08.285Z,44.06
2019-06-10T12:54:36.721Z,43.51
2019-06-10T12:57:06.947Z,44.63
2019-06-10T12:59:35.641Z,44.01
2019-06-10T13:02:15.604Z,44.40
2019-06-10T13:04:34.972Z,43.57
2019-06-10T13:07:05.678Z,43.63
2019-06-10T13:09:36.926Z,44.29
2019-06-10T13:12:05.354Z,44.22
2019-06-10T13:14:33.787Z,43.77
2019-06-10T13:17:03.904Z,42.81
2019-06-10T13:19:34.317Z,43.96
2019-06-10T13:22:05.939Z,44.54
2019-06-10T13:24:33.764Z,44.75
2019-06-10T13:27:03.896Z,44.25
2019-06-10T13:29:33.252Z,44.28
2019-06-10T13:32:04.176Z,44.60
2019-06-10T13:34:32.487Z,43.80
2019-06-10T13:37:03.432Z,45.30
2019-06-10T13:39:32.551Z,42.97
2019-06-10T13:42:05.924Z,42.55
2019-06-10T13:44:32.200Z,42.09
2019-06-10T13:47:02.211Z,42.46
2019-06-10T13:49:33.039Z,42.35
2019-06-10T13:52:05.184Z,42.91
2019-06-10T13:54:31.215Z,43.02
2019-06-10T13:57:00.921Z,43.23
2019-06-10T13:59:29.961Z,41.20
2019-06-10T14:01:59.727Z,43.54
2019-06-10T14:04:28.557Z,44.33
2019-06-10T14:06:57.374Z,43.83
2019-06-10T14:09:25.791Z,45.57
2019-06-10T14:11:54.226Z,45.52
2019-06-10T14:14:23.101Z,45.67
2019-06-10T14:16:53.935Z,46.02
2019-06-10T14:19:23.199Z,44.58
2019-06-10T14:21:51.766Z,45.09
2019-06-10T14:24:22.807Z,45.24
2019-06-10T14:26:52.968Z,45.45
2019-06-10T14:29:20.513Z,45.47
2019-06-10T14:31:49.022Z,44.66
2019-06-10T14:34:18.666Z,44.66
2019-06-10T14:36:47.478Z,43.98
2019-06-10T14:39:16.099Z,42.40
2019-06-10T14:41:45.008Z,42.70
2019-06-10T14:44:16.134Z,41.18
2019-06-10T14:46:43.683Z,40.14
2019-06-10T14:49:14.082Z,41.62
2019-06-10T14:51:43.130Z,41.22
2019-06-10T14:54:14.662Z,40.55
2019-06-10T14:56:53.014Z,40.03
2019-06-10T14:59:14.944Z,38.69
2019-06-10T15:01:42.699Z,38.92
2019-06-10T15:04:14.382Z,38.77
2019-06-10T15:06:43.186Z,38.38
2019-06-10T15:09:11.584Z,38.10
2019-06-10T15:11:39.945Z,37.83
2019-06-10T15:14:09.485Z,38.17
2019-06-10T15:16:38.280Z,38.21
2019-06-10T15:19:14.533Z,38.74
2019-06-10T15:21:37.728Z,39.60
2019-06-10T15:24:06.164Z,40.40
2019-06-10T15:26:34.598Z,40.40
2019-06-10T15:29:03.046Z,40.56
2019-06-10T15:31:31.484Z,39.74
2019-06-10T15:33:59.910Z,39.44
2019-06-10T15:36:28.382Z,40.53
2019-06-10T15:38:56.809Z,40.02
2019-06-10T15:41:25.276Z,39.77
2019-06-10T15:43:53.703Z,39.77
2019-06-10T15:46:22.150Z,41.56
2019-06-10T15:48:53.912Z,41.86
2019-06-10T15:51:25.129Z,42.27
2019-06-10T15:53:50.883Z,42.21
2019-06-10T15:56:35.322Z,43.63
2019-06-10T15:58:49.489Z,44.35
2019-06-10T16:01:20.389Z,43.71
2019-06-10T16:03:48.071Z,43.55
2019-06-10T16:06:16.518Z,44.48
2019-06-10T16:08:44.956Z,44.35
2019-06-10T16:11:16.539Z,43.87
2019-06-10T16:13:43.567Z,44.63
2019-06-10T16:16:12.806Z,45.23
2019-06-10T16:18:42.317Z,45.75
2019-06-10T16:21:13.336Z,45.13
2019-06-10T16:23:42.962Z,45.38
2019-06-10T16:26:13.125Z,45.18
2019-06-10T16:28:42.737Z,44.97
2019-06-10T16:31:13.188Z,45.48
2019-06-10T16:33:49.232Z,45.61
2019-06-10T16:36:12.230Z,46.45
2019-06-10T16:38:42.350Z,47.07
2019-06-10T16:41:12.309Z,47.70
2019-06-10T16:43:42.693Z,45.84
2019-06-10T16:46:10.693Z,47.73
2019-06-10T16:48:39.145Z,48.04
2019-06-10T16:51:07.576Z,48.72
2019-06-10T16:53:36.011Z,48.14
2019-06-10T16:56:04.527Z,49.41
2019-06-10T16:58:33.590Z,49.15
2019-06-10T17:01:03.584Z,49.41
2019-06-10T17:03:33.759Z,49.95
2019-06-10T17:06:02.801Z,49.92
2019-06-10T17:08:33.475Z,50.10
2019-06-10T17:11:03.064Z,50.56
2019-06-10T17:13:30.788Z,48.70
2019-06-10T17:15:59.205Z,51.21
2019-06-10T17:18:28.556Z,51.71
2019-06-10T17:20:57.080Z,52.31
2019-06-10T17:23:27.965Z,49.43
2019-06-10T17:25:56.389Z,52.81
2019-06-10T17:28:30.770Z,50.25
2019-06-10T17:30:57.574Z,52.95
2019-06-10T17:33:27.912Z,53.42
2019-06-10T17:35:56.275Z,54.01
2019-06-10T17:38:24.831Z,54.61
2019-06-10T17:40:53.238Z,54.47
2019-06-10T17:43:21.666Z,54.91
2019-06-10T17:45:52.592Z,55.53
2019-06-10T17:48:23.737Z,55.33
2019-06-10T17:50:52.275Z,55.89
2019-06-10T17:53:19.786Z,54.37
2019-06-10T17:55:48.228Z,55.94
2019-06-10T17:58:31.744Z,56.69
2019-06-10T18:00:46.175Z,56.74
2019-06-10T18:03:14.548Z,54.41
2019-06-10T18:05:42.981Z,57.57
2019-06-10T18:08:13.088Z,57.95
2019-06-10T18:10:43.294Z,58.42
2019-06-10T18:13:16.254Z,55.94
2019-06-10T18:15:40.438Z,57.66
2019-06-10T18:18:08.809Z,56.03
2019-06-10T18:20:37.258Z,58.49
2019-06-10T18:23:05.701Z,58.91
2019-06-10T18:25:36.800Z,58.82
2019-06-10T18:28:04.363Z,60.28
2019-06-10T18:30:35.603Z,59.75
2019-06-10T18:33:03.353Z,60.53
2019-06-10T18:35:34.489Z,60.92
2019-06-10T18:38:02.410Z,61.14
2019-06-10T18:40:31.656Z,61.38
2019-06-10T18:43:02.766Z,61.64
2019-06-10T18:45:33.323Z,61.81
2019-06-10T18:47:59.834Z,61.82
2019-06-10T18:50:28.377Z,59.04
2019-06-10T18:52:58.857Z,62.09
2019-06-10T18:55:26.302Z,62.29
2019-06-10T18:57:54.683Z,59.07
2019-06-10T19:00:23.572Z,62.66
2019-06-10T19:03:08.691Z,62.98
2019-06-10T19:05:22.900Z,63.15
2019-06-10T19:07:52.895Z,63.53
2019-06-10T19:10:23.073Z,63.70
2019-06-10T19:12:53.007Z,63.63
2019-06-10T19:15:21.239Z,61.09
2019-06-10T19:17:49.667Z,64.59
2019-06-10T19:20:20.074Z,64.64
2019-06-10T19:22:48.503Z,64.93
2019-06-10T19:25:17.454Z,65.54
2019-06-10T19:27:45.898Z,65.86
2019-06-10T19:30:14.790Z,65.78
2019-06-10T19:32:44.354Z,66.02
2019-06-10T19:35:13.377Z,65.72
2019-06-10T19:37:42.370Z,66.33
2019-06-10T19:40:12.463Z,66.91
2019-06-10T19:42:43.357Z,67.20
2019-06-10T19:45:12.561Z,67.71
2019-06-10T19:47:44.102Z,68.20
2019-06-10T19:50:12.201Z,68.37
2019-06-10T19:52:43.270Z,68.01
2019-06-10T19:55:13.338Z,68.55
2019-06-10T19:57:41.817Z,68.98
2019-06-10T20:00:12.853Z,69.58
2019-06-10T20:02:44.587Z,69.31
2019-06-10T20:05:12.594Z,69.46
2019-06-10T20:07:45.810Z,69.38
2019-06-10T20:10:13.235Z,69.15
2019-06-10T20:12:44.846Z,69.58
2019-06-10T20:15:23.732Z,70.20
2019-06-10T20:17:52.689Z,69.68
2019-06-10T20:20:22.838Z,70.02
2019-06-10T20:22:53.357Z,70.21
2019-06-10T20:25:22.361Z,70.30
2019-06-10T20:27:52.347Z,69.56
2019-06-10T20:30:28.317Z,70.24
2019-06-10T20:32:55.699Z,69.92
2019-06-10T20:35:23.214Z,70.36
2019-06-10T20:37:53.838Z,70.19
2019-06-10T20:40:22.844Z,70.18
2019-06-10T20:42:51.264Z,70.19
2019-06-10T20:45:19.889Z,70.13
2019-06-10T20:47:48.334Z,70.19
2019-06-10T20:50:17.323Z,70.06
2019-06-10T20:52:46.370Z,70.10
2019-06-10T20:55:16.134Z,69.97
2019-06-10T20:57:57.652Z,70.04
2019-06-10T21:00:22.649Z,70.09
2019-06-10T21:02:49.044Z,69.54
2019-06-10T21:05:18.482Z,69.28
2019-06-10T21:07:48.859Z,69.29
2019-06-10T21:10:22.286Z,69.22
2019-06-10T21:12:51.039Z,69.36
2019-06-10T21:15:19.513Z,69.27
2019-06-10T21:17:49.121Z,69.11
2019-06-10T21:20:17.679Z,68.84
2019-06-10T21:22:47.427Z,69.11
2019-06-10T21:25:16.230Z,68.81
2019-06-10T21:27:46.128Z,68.80
2019-06-10T21:30:15.220Z,68.79
2019-06-10T21:32:45.663Z,69.00
2019-06-10T21:35:13.169Z,69.00
2019-06-10T21:37:44.839Z,66.45
2019-06-10T21:40:12.795Z,69.37
2019-06-10T21:42:41.699Z,69.93
2019-06-10T21:45:12.509Z,70.39
2019-06-10T21:47:43.886Z,70.41
2019-06-10T21:50:12.454Z,71.47
2019-06-10T21:52:44.085Z,71.57
2019-06-10T21:55:13.126Z,72.47
2019-06-10T21:57:43.028Z,71.33
2019-06-10T22:00:14.234Z,72.29
2019-06-10T22:02:44.511Z,72.42
2019-06-10T22:05:13.417Z,72.45
2019-06-10T22:07:42.306Z,72.92
2019-06-10T22:10:12.793Z,72.63
2019-06-10T22:12:42.150Z,73.19
2019-06-10T22:15:12.539Z,73.85
2019-06-10T22:17:42.535Z,73.79
2019-06-10T22:20:12.480Z,73.58
2019-06-10T22:22:42.928Z,74.08
2019-06-10T22:25:13.201Z,74.44
2019-06-10T22:27:42.187Z,74.36
2019-06-10T22:30:11.894Z,75.00
2019-06-10T22:32:42.782Z,75.25
2019-06-10T22:35:12.306Z,75.21
2019-06-10T22:37:40.909Z,75.20
2019-06-10T22:40:12.245Z,75.11
2019-06-10T22:42:38.914Z,76.24
2019-06-10T22:45:08.033Z,73.15
2019-06-10T22:47:36.497Z,75.72
2019-06-10T22:50:08.498Z,76.21
2019-06-10T22:52:36.949Z,76.90
2019-06-10T22:55:09.173Z,77.05
2019-06-10T22:57:37.612Z,76.44
2019-06-10T23:00:08.241Z,77.12
2019-06-10T23:02:36.730Z,77.90
2019-06-10T23:05:07.147Z,77.98
2019-06-10T23:07:35.605Z,78.02
2019-06-10T23:10:05.883Z,77.89
2019-06-10T23:12:34.324Z,78.01
2019-06-10T23:15:03.003Z,77.85
2019-06-10T23:17:31.483Z,77.89
2019-06-10T23:19:59.944Z,77.95
2019-06-10T23:22:28.375Z,77.86
2019-06-10T23:24:57.736Z,77.43
2019-06-10T23:27:26.256Z,77.62
2019-06-10T23:29:56.005Z,77.44
2019-06-10T23:32:24.880Z,77.78
2019-06-10T23:34:54.679Z,77.81
2019-06-10T23:37:23.492Z,77.85
2019-06-10T23:39:52.762Z,77.63
2019-06-10T23:42:22.732Z,77.74
2019-06-10T23:44:51.337Z,77.79
2019-06-10T23:47:21.979Z,77.79
2019-06-10T23:49:51.344Z,77.91
2019-06-10T23:52:22.041Z,77.74
2019-06-10T23:54:51.602Z,77.70
2019-06-10T23:57:22.322Z,77.54
2019-06-10T23:59:52.486Z,78.00
